aviador You're here:

ETHN Decoded Metar

NIEDERSTETTEN in GERMANY
Report Time2017-11-20 13:20:00
UTC Time2017-11-20 13:33:10
Flight Rules mvfr MVFR
Wind250° at 13 kt
W.Decomp.*RWY 25: 13.0 kt HW 0.5 kt LCW
W.Rank250° ranks 2
Current wind is above 250° avg. (9.7)
Visibility9999 m
Phenomena:N/A
Clouds:Broken 010 Hf
Overcast 040 Hf
Expected CloudBase > 800 ft AGL from Temp-Dew spread
Ceiling1,000 ft
Temp02°C (ISA -10)
Dew Point00°C (87% RH)
AAT-4.7°C
QNH1019 hPa
Density Alt236 ft
Elevation1,552 ft
Report Wrong Elevation
Raw Report
METAR ETHN 201320Z 25013KT 9999 -RASN BKN010 OVC040 02/M00 Q1019
GRN GRN=

Extra information for ETHN:More info

Metar Taf Metar & Taf Last 4 Metars F.Rules Stats Wind Profile Meteogram Temp Stats Airport Information Weather charts Add Link Nearby VenuesMetar ALERT Operation Metar Decoded Social comments